sensor_id;sensor_type;location;lat;lon;timestamp;pressure;altitude;pressure_sealevel;temperature;humidity
70843;BME280;58469;52.312;16.970;2024-03-02T00:01:57;100181.81;;;9.45;100.00
70843;BME280;58469;52.312;16.970;2024-03-02T00:04:57;100182.38;;;9.47;100.00
70843;BME280;58469;52.312;16.970;2024-03-02T00:07:58;100180.78;;;9.46;100.00
70843;BME280;58469;52.312;16.970;2024-03-02T00:10:59;100173.16;;;9.45;100.00
70843;BME280;58469;52.312;16.970;2024-03-02T00:14:00;100176.00;;;9.43;100.00
70843;BME280;58469;52.312;16.970;2024-03-02T00:17:00;100176.81;;;9.44;100.00
70843;BME280;58469;52.312;16.970;2024-03-02T00:20:01;100178.38;;;9.45;100.00
70843;BME280;58469;52.312;16.970;2024-03-02T00:23:07;100185.63;;;9.43;100.00
70843;BME280;58469;52.312;16.970;2024-03-02T00:26:11;100179.25;;;9.39;100.00
70843;BME280;58469;52.312;16.970;2024-03-02T00:29:15;100177.22;;;9.41;100.00
70843;BME280;58469;52.312;16.970;2024-03-02T00:32:16;100173.25;;;9.38;100.00
70843;BME280;58469;52.312;16.970;2024-03-02T00:35:17;100171.66;;;9.37;100.00
70843;BME280;58469;52.312;16.970;2024-03-02T00:38:17;100170.84;;;9.37;100.00
70843;BME280;58469;52.312;16.970;2024-03-02T00:41:21;100182.88;;;9.38;100.00
70843;BME280;58469;52.312;16.970;2024-03-02T00:44:25;100169.06;;;9.37;100.00
70843;BME280;58469;52.312;16.970;2024-03-02T00:47:26;100173.25;;;9.38;100.00
70843;BME280;58469;52.312;16.970;2024-03-02T00:50:26;100164.84;;;9.36;100.00
70843;BME280;58469;52.312;16.970;2024-03-02T00:53:27;100161.00;;;9.39;100.00
70843;BME280;58469;52.312;16.970;2024-03-02T00:56:27;100149.41;;;9.35;100.00
70843;BME280;58469;52.312;16.970;2024-03-02T00:59:28;100158.63;;;9.37;100.00
70843;BME280;58469;52.312;16.970;2024-03-02T01:02:29;100149.41;;;9.35;100.00
70843;BME280;58469;52.312;16.970;2024-03-02T01:05:30;100151.00;;;9.36;100.00
70843;BME280;58469;52.312;16.970;2024-03-02T01:08:30;100153.22;;;9.32;100.00
70843;BME280;58469;52.312;16.970;2024-03-02T01:11:31;100153.03;;;9.34;100.00
70843;BME280;58469;52.312;16.970;2024-03-02T01:14:31;100153.03;;;9.34;100.00
70843;BME280;58469;52.312;16.970;2024-03-02T01:17:32;100148.00;;;9.32;100.00
70843;BME280;58469;52.312;16.970;2024-03-02T01:20:32;100159.09;;;9.28;100.00
70843;BME280;58469;52.312;16.970;2024-03-02T01:23:32;100147.31;;;9.25;100.00
70843;BME280;58469;52.312;16.970;2024-03-02T01:26:33;100134.91;;;9.21;100.00
70843;BME280;58469;52.312;16.970;2024-03-02T01:29:33;100147.94;;;9.21;100.00
70843;BME280;58469;52.312;16.970;2024-03-02T01:32:33;100130.97;;;9.12;100.00
70843;BME280;58469;52.312;16.970;2024-03-02T01:35:34;100150.53;;;9.21;100.00
70843;BME280;58469;52.312;16.970;2024-03-02T01:38:37;100141.13;;;9.20;100.00
70843;BME280;58469;52.312;16.970;2024-03-02T01:41:37;100140.53;;;9.18;100.00
70843;BME280;58469;52.312;16.970;2024-03-02T01:44:39;100134.16;;;9.14;100.00
70843;BME280;58469;52.312;16.970;2024-03-02T01:47:40;100129.97;;;9.13;100.00
70843;BME280;58469;52.312;16.970;2024-03-02T01:50:40;100133.78;;;9.10;100.00
70843;BME280;58469;52.312;16.970;2024-03-02T01:53:41;100124.59;;;9.08;100.00
70843;BME280;58469;52.312;16.970;2024-03-02T01:56:41;100124.88;;;9.00;100.00
70843;BME280;58469;52.312;16.970;2024-03-02T01:59:42;100134.56;;;8.93;100.00
70843;BME280;58469;52.312;16.970;2024-03-02T02:02:43;100129.81;;;8.83;100.00
70843;BME280;58469;52.312;16.970;2024-03-02T02:05:43;100127.47;;;8.75;100.00
70843;BME280;58469;52.312;16.970;2024-03-02T02:08:44;100132.16;;;8.67;100.00
70843;BME280;58469;52.312;16.970;2024-03-02T02:11:45;100120.81;;;8.55;100.00
70843;BME280;58469;52.312;16.970;2024-03-02T02:14:49;100123.81;;;8.58;100.00
70843;BME280;58469;52.312;16.970;2024-03-02T02:17:53;100128.81;;;8.60;100.00
70843;BME280;58469;52.312;16.970;2024-03-02T02:20:53;100133.19;;;8.59;100.00
70843;BME280;58469;52.312;16.970;2024-03-02T02:23:53;100129.38;;;8.62;100.00
70843;BME280;58469;52.312;16.970;2024-03-02T02:26:54;100132.59;;;8.64;100.00
70843;BME280;58469;52.312;16.970;2024-03-02T02:29:54;100124.13;;;8.68;100.00
70843;BME280;58469;52.312;16.970;2024-03-02T02:32:56;100126.94;;;8.67;100.00
70843;BME280;58469;52.312;16.970;2024-03-02T02:35:57;100119.97;;;8.61;100.00
70843;BME280;58469;52.312;16.970;2024-03-02T02:39:01;100134.34;;;8.70;100.00
70843;BME280;58469;52.312;16.970;2024-03-02T02:42:03;100136.72;;;8.71;100.00
70843;BME280;58469;52.312;16.970;2024-03-02T02:45:05;100128.75;;;8.66;100.00
70843;BME280;58469;52.312;16.970;2024-03-02T02:48:06;100123.31;;;8.68;100.00
70843;BME280;58469;52.312;16.970;2024-03-02T02:51:06;100135.34;;;8.69;100.00
70843;BME280;58469;52.312;16.970;2024-03-02T02:54:07;100132.75;;;8.69;100.00
70843;BME280;58469;52.312;16.970;2024-03-02T02:57:07;100143.38;;;8.67;100.00
70843;BME280;58469;52.312;16.970;2024-03-02T03:00:10;100139.75;;;8.68;100.00
70843;BME280;58469;52.312;16.970;2024-03-02T03:03:11;100140.19;;;8.65;100.00
70843;BME280;58469;52.312;16.970;2024-03-02T03:06:11;100130.16;;;8.62;100.00
70843;BME280;58469;52.312;16.970;2024-03-02T03:09:12;100131.19;;;8.61;100.00
70843;BME280;58469;52.312;16.970;2024-03-02T03:12:12;100113.38;;;8.58;100.00
70843;BME280;58469;52.312;16.970;2024-03-02T03:15:13;100113.38;;;8.58;100.00
70843;BME280;58469;52.312;16.970;2024-03-02T03:18:14;100118.38;;;8.60;100.00
70843;BME280;58469;52.312;16.970;2024-03-02T03:21:14;100110.63;;;8.53;100.00
70843;BME280;58469;52.312;16.970;2024-03-02T03:24:15;100107.59;;;8.56;100.00
70843;BME280;58469;52.312;16.970;2024-03-02T03:27:15;100115.41;;;8.56;100.00
70843;BME280;58469;52.312;16.970;2024-03-02T03:30:15;100112.59;;;8.58;100.00
70843;BME280;58469;52.312;16.970;2024-03-02T03:33:16;100113.97;;;8.60;100.00
70843;BME280;58469;52.312;16.970;2024-03-02T03:36:16;100118.16;;;8.61;100.00
70843;BME280;58469;52.312;16.970;2024-03-02T03:39:16;100114.75;;;8.61;100.00
70843;BME280;58469;52.312;16.970;2024-03-02T03:42:17;100109.00;;;8.59;100.00
70843;BME280;58469;52.312;16.970;2024-03-02T03:45:18;100106.16;;;8.60;100.00
70843;BME280;58469;52.312;16.970;2024-03-02T03:48:18;100111.38;;;8.60;100.00
70843;BME280;58469;52.312;16.970;2024-03-02T03:51:19;100101.94;;;8.59;100.00
70843;BME280;58469;52.312;16.970;2024-03-02T03:54:19;100113.75;;;8.62;100.00
70843;BME280;58469;52.312;16.970;2024-03-02T03:57:19;100107.53;;;8.63;100.00
70843;BME280;58469;52.312;16.970;2024-03-02T04:00:20;100115.34;;;8.63;100.00
70843;BME280;58469;52.312;16.970;2024-03-02T04:03:20;100111.16;;;8.62;100.00
70843;BME280;58469;52.312;16.970;2024-03-02T04:06:20;100104.97;;;8.56;100.00
70843;BME280;58469;52.312;16.970;2024-03-02T04:09:21;100106.94;;;8.61;100.00
70843;BME280;58469;52.312;16.970;2024-03-02T04:12:21;100118.59;;;8.58;100.00
70843;BME280;58469;52.312;16.970;2024-03-02T04:15:22;100114.19;;;8.59;100.00
70843;BME280;58469;52.312;16.970;2024-03-02T04:18:23;100109.22;;;8.51;100.00
70843;BME280;58469;52.312;16.970;2024-03-02T04:21:23;100109.38;;;8.56;100.00
70843;BME280;58469;52.312;16.970;2024-03-02T04:24:24;100117.63;;;8.53;100.00
70843;BME280;58469;52.312;16.970;2024-03-02T04:27:24;100120.03;;;8.54;100.00
70843;BME280;58469;52.312;16.970;2024-03-02T04:30:25;100128.84;;;8.53;100.00
70843;BME280;58469;52.312;16.970;2024-03-02T04:33:25;100131.84;;;8.57;100.00
70843;BME280;58469;52.312;16.970;2024-03-02T04:36:25;100133.03;;;8.54;100.00
70843;BME280;58469;52.312;16.970;2024-03-02T04:39:26;100130.66;;;8.53;100.00
70843;BME280;58469;52.312;16.970;2024-03-02T04:42:26;100136.66;;;8.53;100.00
70843;BME280;58469;52.312;16.970;2024-03-02T04:45:26;100135.25;;;8.51;100.00
70843;BME280;58469;52.312;16.970;2024-03-02T04:48:27;100145.47;;;8.52;100.00
70843;BME280;58469;52.312;16.970;2024-03-02T04:51:27;100147.28;;;8.52;100.00
70843;BME280;58469;52.312;16.970;2024-03-02T04:54:28;100144.69;;;8.52;100.00
70843;BME280;58469;52.312;16.970;2024-03-02T04:57:28;100135.25;;;8.51;100.00
70843;BME280;58469;52.312;16.970;2024-03-02T05:00:28;100149.09;;;8.51;100.00
70843;BME280;58469;52.312;16.970;2024-03-02T05:03:29;100143.06;;;8.51;100.00
70843;BME280;58469;52.312;16.970;2024-03-02T05:06:29;100141.88;;;8.53;100.00
70843;BME280;58469;52.312;16.970;2024-03-02T05:09:30;100155.88;;;8.52;100.00
70843;BME280;58469;52.312;16.970;2024-03-02T05:12:30;100155.31;;;8.50;100.00
70843;BME280;58469;52.312;16.970;2024-03-02T05:15:42;100145.09;;;8.49;100.00
70843;BME280;58469;52.312;16.970;2024-03-02T05:18:43;100146.31;;;8.46;100.00
70843;BME280;58469;52.312;16.970;2024-03-02T05:21:43;100142.75;;;8.41;100.00
70843;BME280;58469;52.312;16.970;2024-03-02T05:24:44;100151.75;;;8.45;100.00
70843;BME280;58469;52.312;16.970;2024-03-02T05:27:44;100158.31;;;8.47;100.00
70843;BME280;58469;52.312;16.970;2024-03-02T05:30:45;100165.56;;;8.39;100.00
70843;BME280;58469;52.312;16.970;2024-03-02T05:33:46;100170.56;;;8.40;100.00
70843;BME280;58469;52.312;16.970;2024-03-02T05:36:46;100167.41;;;8.38;100.00
70843;BME280;58469;52.312;16.970;2024-03-02T05:39:47;100161.59;;;8.36;100.00
70843;BME280;58469;52.312;16.970;2024-03-02T05:42:47;100153.19;;;8.34;100.00
70843;BME280;58469;52.312;16.970;2024-03-02T05:45:47;100163.81;;;8.32;100.00
70843;BME280;58469;52.312;16.970;2024-03-02T05:48:48;100166.06;;;8.22;100.00
70843;BME280;58469;52.312;16.970;2024-03-02T05:51:48;100172.28;;;8.15;100.00
70843;BME280;58469;52.312;16.970;2024-03-02T05:54:48;100177.09;;;8.11;100.00
70843;BME280;58469;52.312;16.970;2024-03-02T05:57:49;100174.13;;;8.08;100.00
70843;BME280;58469;52.312;16.970;2024-03-02T06:01:03;100184.34;;;8.03;100.00
70843;BME280;58469;52.312;16.970;2024-03-02T06:04:05;100182.16;;;8.00;100.00
70843;BME280;58469;52.312;16.970;2024-03-02T06:07:05;100181.97;;;8.01;100.00
70843;BME280;58469;52.312;16.970;2024-03-02T06:10:06;100180.38;;;8.00;100.00
70843;BME280;58469;52.312;16.970;2024-03-02T06:13:08;100183.34;;;8.04;100.00
70843;BME280;58469;52.312;16.970;2024-03-02T06:16:09;100185.94;;;8.04;100.00
70843;BME280;58469;52.312;16.970;2024-03-02T06:19:09;100191.91;;;8.11;100.00
70843;BME280;58469;52.312;16.970;2024-03-02T06:22:09;100205.09;;;8.16;100.00
70843;BME280;58469;52.312;16.970;2024-03-02T06:25:10;100205.69;;;8.24;100.00
70843;BME280;58469;52.312;16.970;2024-03-02T06:28:10;100211.66;;;8.31;100.00
70843;BME280;58469;52.312;16.970;2024-03-02T06:31:11;100204.84;;;8.37;100.00
70843;BME280;58469;52.312;16.970;2024-03-02T06:34:11;100191.41;;;8.40;100.00
70843;BME280;58469;52.312;16.970;2024-03-02T06:37:15;100205.56;;;8.51;100.00
70843;BME280;58469;52.312;16.970;2024-03-02T06:40:16;100210.78;;;8.51;100.00
70843;BME280;58469;52.312;16.970;2024-03-02T06:43:16;100205.34;;;8.52;100.00
70843;BME280;58469;52.312;16.970;2024-03-02T06:46:16;100197.75;;;8.51;100.00
70843;BME280;58469;52.312;16.970;2024-03-02T06:49:17;100201.72;;;8.60;100.00
70843;BME280;58469;52.312;16.970;2024-03-02T06:52:18;100205.34;;;8.59;100.00
70843;BME280;58469;52.312;16.970;2024-03-02T06:55:18;100206.13;;;8.59;100.00
70843;BME280;58469;52.312;16.970;2024-03-02T06:58:19;100202.16;;;8.57;100.00
70843;BME280;58469;52.312;16.970;2024-03-02T07:01:19;100202.53;;;8.60;100.00
70843;BME280;58469;52.312;16.970;2024-03-02T07:04:22;100197.88;;;8.69;100.00
70843;BME280;58469;52.312;16.970;2024-03-02T07:07:22;100203.63;;;8.77;100.00
70843;BME280;58469;52.312;16.970;2024-03-02T07:10:22;100208.34;;;8.87;100.00
70843;BME280;58469;52.312;16.970;2024-03-02T07:13:23;100213.88;;;8.97;100.00
70843;BME280;58469;52.312;16.970;2024-03-02T07:16:23;100211.75;;;9.12;100.00
70843;BME280;58469;52.312;16.970;2024-03-02T07:19:32;100201.88;;;9.20;99.74
70843;BME280;58469;52.312;16.970;2024-03-02T07:22:33;100218.59;;;9.37;98.99
70843;BME280;58469;52.312;16.970;2024-03-02T07:25:33;100218.91;;;9.47;98.25
70843;BME280;58469;52.312;16.970;2024-03-02T07:28:34;100219.78;;;9.60;98.80
70843;BME280;58469;52.312;16.970;2024-03-02T07:31:34;100226.03;;;9.77;98.31
70843;BME280;58469;52.312;16.970;2024-03-02T07:34:35;100221.63;;;9.95;98.09
70843;BME280;58469;52.312;16.970;2024-03-02T07:37:36;100222.13;;;10.04;97.03
70843;BME280;58469;52.312;16.970;2024-03-02T07:40:36;100228.47;;;10.14;96.61
70843;BME280;58469;52.312;16.970;2024-03-02T07:43:37;100232.22;;;10.18;95.97
70843;BME280;58469;52.312;16.970;2024-03-02T07:46:37;100236.44;;;10.19;95.57
70843;BME280;58469;52.312;16.970;2024-03-02T07:49:37;100232.56;;;10.22;95.49
70843;BME280;58469;52.312;16.970;2024-03-02T07:52:38;100237.94;;;10.27;95.73
70843;BME280;58469;52.312;16.970;2024-03-02T07:55:38;100240.41;;;10.40;94.83
70843;BME280;58469;52.312;16.970;2024-03-02T07:58:39;100235.03;;;10.64;94.76
70843;BME280;58469;52.312;16.970;2024-03-02T08:01:39;100235.47;;;10.91;93.88
70843;BME280;58469;52.312;16.970;2024-03-02T08:04:40;100243.28;;;11.21;93.47
70843;BME280;58469;52.312;16.970;2024-03-02T08:07:41;100253.53;;;11.45;92.10
70843;BME280;58469;52.312;16.970;2024-03-02T08:10:41;100248.41;;;11.62;90.04
70843;BME280;58469;52.312;16.970;2024-03-02T08:13:42;100249.44;;;11.72;89.12
70843;BME280;58469;52.312;16.970;2024-03-02T08:16:42;100244.56;;;11.76;89.10
70843;BME280;58469;52.312;16.970;2024-03-02T08:19:43;100245.94;;;11.78;88.70
70843;BME280;58469;52.312;16.970;2024-03-02T08:22:44;100244.78;;;11.74;88.05
70843;BME280;58469;52.312;16.970;2024-03-02T08:25:45;100249.56;;;11.89;88.83
70843;BME280;58469;52.312;16.970;2024-03-02T08:28:45;100245.69;;;12.03;88.41
70843;BME280;58469;52.312;16.970;2024-03-02T08:31:46;100252.00;;;12.19;88.91
70843;BME280;58469;52.312;16.970;2024-03-02T08:34:46;100244.03;;;12.25;88.05
70843;BME280;58469;52.312;16.970;2024-03-02T08:37:46;100253.00;;;12.29;86.59
70843;BME280;58469;52.312;16.970;2024-03-02T08:40:47;100257.00;;;12.32;86.39
70843;BME280;58469;52.312;16.970;2024-03-02T08:43:47;100242.03;;;12.44;87.00
70843;BME280;58469;52.312;16.970;2024-03-02T08:46:48;100248.06;;;12.72;87.09
70843;BME280;58469;52.312;16.970;2024-03-02T08:49:48;100247.31;;;12.88;85.83
70843;BME280;58469;52.312;16.970;2024-03-02T08:52:48;100244.41;;;13.02;85.56
70843;BME280;58469;52.312;16.970;2024-03-02T08:55:49;100244.50;;;13.07;84.94
70843;BME280;58469;52.312;16.970;2024-03-02T08:58:50;100244.72;;;13.22;83.69
70843;BME280;58469;52.312;16.970;2024-03-02T09:01:51;100237.81;;;13.32;83.80
70843;BME280;58469;52.312;16.970;2024-03-02T09:04:51;100238.28;;;13.62;83.83
70843;BME280;58469;52.312;16.970;2024-03-02T09:07:52;100241.34;;;13.76;81.80
70843;BME280;58469;52.312;16.970;2024-03-02T09:10:52;100236.41;;;13.79;81.93
70843;BME280;58469;52.312;16.970;2024-03-02T09:13:53;100239.81;;;13.80;80.14
70843;BME280;58469;52.312;16.970;2024-03-02T09:16:56;100242.31;;;13.70;80.57
70843;BME280;58469;52.312;16.970;2024-03-02T09:19:56;100232.06;;;13.68;80.70
70843;BME280;58469;52.312;16.970;2024-03-02T09:22:56;100235.78;;;13.72;80.40
70843;BME280;58469;52.312;16.970;2024-03-02T09:25:57;100235.84;;;13.77;80.53
70843;BME280;58469;52.312;16.970;2024-03-02T09:28:57;100236.63;;;13.94;80.44
70843;BME280;58469;52.312;16.970;2024-03-02T09:31:57;100240.56;;;13.97;79.72
70843;BME280;58469;52.312;16.970;2024-03-02T09:34:58;100236.84;;;13.93;79.54
70843;BME280;58469;52.312;16.970;2024-03-02T09:37:58;100238.75;;;13.97;78.38
70843;BME280;58469;52.312;16.970;2024-03-02T09:41:00;100231.91;;;13.96;77.70
70843;BME280;58469;52.312;16.970;2024-03-02T09:44:02;100227.81;;;14.05;78.47
70843;BME280;58469;52.312;16.970;2024-03-02T09:47:03;100236.44;;;14.23;78.34
70843;BME280;58469;52.312;16.970;2024-03-02T09:50:04;100244.84;;;14.41;77.11
70843;BME280;58469;52.312;16.970;2024-03-02T09:53:04;100248.66;;;14.55;76.64
70843;BME280;58469;52.312;16.970;2024-03-02T09:56:05;100242.38;;;14.56;75.99
70843;BME280;58469;52.312;16.970;2024-03-02T09:59:05;100246.97;;;14.44;75.71
70843;BME280;58469;52.312;16.970;2024-03-02T10:02:06;100250.03;;;14.36;76.29
70843;BME280;58469;52.312;16.970;2024-03-02T10:05:10;100255.91;;;14.43;75.62
70843;BME280;58469;52.312;16.970;2024-03-02T10:08:10;100258.16;;;14.35;75.44
70843;BME280;58469;52.312;16.970;2024-03-02T10:11:10;100253.44;;;14.37;75.83
70843;BME280;58469;52.312;16.970;2024-03-02T10:14:12;100247.03;;;14.49;76.89
70843;BME280;58469;52.312;16.970;2024-03-02T10:17:13;100254.63;;;14.72;74.98
70843;BME280;58469;52.312;16.970;2024-03-02T10:20:27;100246.91;;;14.66;74.98
70843;BME280;58469;52.312;16.970;2024-03-02T10:23:30;100246.66;;;14.67;75.55
70843;BME280;58469;52.312;16.970;2024-03-02T10:26:31;100248.13;;;14.80;75.05
70843;BME280;58469;52.312;16.970;2024-03-02T10:29:31;100244.22;;;14.82;74.66
70843;BME280;58469;52.312;16.970;2024-03-02T10:32:32;100239.97;;;14.81;75.42
70843;BME280;58469;52.312;16.970;2024-03-02T10:35:33;100241.94;;;14.91;75.43
70843;BME280;58469;52.312;16.970;2024-03-02T10:38:36;100232.50;;;15.00;74.70
70843;BME280;58469;52.312;16.970;2024-03-02T10:41:38;100236.97;;;14.94;74.18
70843;BME280;58469;52.312;16.970;2024-03-02T10:44:39;100234.91;;;15.01;73.76
70843;BME280;58469;52.312;16.970;2024-03-02T10:47:41;100233.75;;;15.24;73.88
70843;BME280;58469;52.312;16.970;2024-03-02T10:50:42;100232.72;;;15.25;73.17
70843;BME280;58469;52.312;16.970;2024-03-02T10:53:43;100224.28;;;15.23;73.72
70843;BME280;58469;52.312;16.970;2024-03-02T10:56:44;100218.25;;;15.27;73.26
70843;BME280;58469;52.312;16.970;2024-03-02T10:59:56;100214.97;;;15.10;72.18
70843;BME280;58469;52.312;16.970;2024-03-02T11:03:06;100219.78;;;14.87;73.39
70843;BME280;58469;52.312;16.970;2024-03-02T11:06:08;100221.44;;;14.66;73.65
70843;BME280;58469;52.312;16.970;2024-03-02T11:09:09;100216.22;;;14.71;74.87
70843;BME280;58469;52.312;16.970;2024-03-02T11:12:13;100219.53;;;14.88;73.52
70843;BME280;58469;52.312;16.970;2024-03-02T11:15:17;100207.47;;;14.92;73.49
70843;BME280;58469;52.312;16.970;2024-03-02T11:18:19;100222.50;;;14.97;73.26
70843;BME280;58469;52.312;16.970;2024-03-02T11:21:20;100223.34;;;15.02;72.61
70843;BME280;58469;52.312;16.970;2024-03-02T11:27:59;100211.66;;;14.62;72.78
70843;BME280;58469;52.312;16.970;2024-03-02T11:31:00;100207.06;;;14.52;74.10
70843;BME280;58469;52.312;16.970;2024-03-02T11:34:18;100210.66;;;14.41;73.91
70843;BME280;58469;52.312;16.970;2024-03-02T11:37:29;100208.66;;;14.27;75.08
70843;BME280;58469;52.312;16.970;2024-03-02T11:40:30;100210.47;;;14.26;75.58
70843;BME280;58469;52.312;16.970;2024-03-02T11:43:31;100215.19;;;14.24;76.05
70843;BME280;58469;52.312;16.970;2024-03-02T11:46:32;100212.06;;;14.27;75.90
70843;BME280;58469;52.312;16.970;2024-03-02T11:49:43;100207.19;;;14.36;75.95
70843;BME280;58469;52.312;16.970;2024-03-02T11:52:45;100207.19;;;14.36;75.97
70843;BME280;58469;52.312;16.970;2024-03-02T11:55:47;100212.19;;;14.37;75.52
70843;BME280;58469;52.312;16.970;2024-03-02T11:58:49;100218.00;;;14.39;75.70
70843;BME280;58469;52.312;16.970;2024-03-02T12:01:53;100213.53;;;14.40;75.73
70843;BME280;58469;52.312;16.970;2024-03-02T12:04:54;100211.00;;;14.50;75.76
70843;BME280;58469;52.312;16.970;2024-03-02T12:07:58;100214.03;;;14.63;75.64
70843;BME280;58469;52.312;16.970;2024-03-02T12:11:00;100205.91;;;14.65;74.53
70843;BME280;58469;52.312;16.970;2024-03-02T12:14:01;100207.72;;;14.64;75.20
70843;BME280;58469;52.312;16.970;2024-03-02T12:17:02;100208.22;;;14.61;74.60
70843;BME280;58469;52.312;16.970;2024-03-02T12:20:05;100203.69;;;14.52;74.57
70843;BME280;58469;52.312;16.970;2024-03-02T12:23:05;100207.88;;;14.53;74.43
70843;BME280;58469;52.312;16.970;2024-03-02T12:26:06;100214.28;;;14.62;74.07
70843;BME280;58469;52.312;16.970;2024-03-02T12:29:07;100206.50;;;14.72;75.00
70843;BME280;58469;52.312;16.970;2024-03-02T12:32:07;100201.66;;;14.90;75.21
70843;BME280;58469;52.312;16.970;2024-03-02T12:35:08;100205.81;;;15.18;75.62
70843;BME280;58469;52.312;16.970;2024-03-02T12:38:12;100204.22;;;15.49;74.68
70843;BME280;58469;52.312;16.970;2024-03-02T12:41:16;100204.03;;;15.60;73.17
70843;BME280;58469;52.312;16.970;2024-03-02T12:44:17;100199.56;;;15.66;72.65
70843;BME280;58469;52.312;16.970;2024-03-02T12:47:18;100200.97;;;15.78;71.72
70843;BME280;58469;52.312;16.970;2024-03-02T12:50:18;100193.81;;;15.74;71.05
70843;BME280;58469;52.312;16.970;2024-03-02T12:53:21;100181.66;;;15.63;70.46
70843;BME280;58469;52.312;16.970;2024-03-02T12:56:21;100200.31;;;15.56;70.74
70843;BME280;58469;52.312;16.970;2024-03-02T12:59:24;100197.47;;;15.63;71.29
70843;BME280;58469;52.312;16.970;2024-03-02T13:02:30;100200.13;;;15.68;70.56
70843;BME280;58469;52.312;16.970;2024-03-02T13:05:31;100197.16;;;15.54;70.33
70843;BME280;58469;52.312;16.970;2024-03-02T13:08:35;100192.41;;;15.51;70.79
70843;BME280;58469;52.312;16.970;2024-03-02T13:11:36;100188.34;;;15.39;70.52
70843;BME280;58469;52.312;16.970;2024-03-02T13:14:38;100197.56;;;15.41;70.03
70843;BME280;58469;52.312;16.970;2024-03-02T13:17:38;100188.31;;;15.33;70.05
70843;BME280;58469;52.312;16.970;2024-03-02T13:20:39;100196.22;;;15.39;70.61
70843;BME280;58469;52.312;16.970;2024-03-02T13:23:40;100198.66;;;15.45;70.78
70843;BME280;58469;52.312;16.970;2024-03-02T13:26:40;100193.72;;;15.54;71.09
70843;BME280;58469;52.312;16.970;2024-03-02T13:29:40;100192.22;;;15.68;70.72
70843;BME280;58469;52.312;16.970;2024-03-02T13:32:41;100201.28;;;15.87;70.72
70843;BME280;58469;52.312;16.970;2024-03-02T13:35:41;100203.63;;;15.83;69.58
70843;BME280;58469;52.312;16.970;2024-03-02T13:38:42;100201.44;;;15.70;69.69
70843;BME280;58469;52.312;16.970;2024-03-02T13:41:43;100199.59;;;15.71;70.36
70843;BME280;58469;52.312;16.970;2024-03-02T13:44:52;100201.22;;;15.72;70.13
70843;BME280;58469;52.312;16.970;2024-03-02T13:47:52;100200.41;;;15.71;68.17
70843;BME280;58469;52.312;16.970;2024-03-02T13:50:53;100199.84;;;15.64;68.14
70843;BME280;58469;52.312;16.970;2024-03-02T13:53:53;100204.00;;;15.55;68.58
70843;BME280;58469;52.312;16.970;2024-03-02T13:56:54;100198.44;;;15.52;69.35
70843;BME280;58469;52.312;16.970;2024-03-02T13:59:54;100197.88;;;15.45;68.46
70843;BME280;58469;52.312;16.970;2024-03-02T14:02:55;100206.81;;;15.44;68.96
70843;BME280;58469;52.312;16.970;2024-03-02T14:05:55;100207.28;;;15.36;69.17
70843;BME280;58469;52.312;16.970;2024-03-02T14:08:56;100198.81;;;15.28;69.31
70843;BME280;58469;52.312;16.970;2024-03-02T14:11:57;100201.16;;;15.25;69.22
70843;BME280;58469;52.312;16.970;2024-03-02T14:14:57;100204.19;;;15.12;69.07
70843;BME280;58469;52.312;16.970;2024-03-02T14:18:02;100204.16;;;15.07;70.11
70843;BME280;58469;52.312;16.970;2024-03-02T14:21:03;100203.59;;;15.05;70.41
70843;BME280;58469;52.312;16.970;2024-03-02T14:24:04;100200.91;;;14.95;70.85
70843;BME280;58469;52.312;16.970;2024-03-02T14:27:04;100193.69;;;14.80;70.82
70843;BME280;58469;52.312;16.970;2024-03-02T14:30:05;100205.75;;;14.76;70.79
70843;BME280;58469;52.312;16.970;2024-03-02T14:33:07;100199.16;;;14.74;71.49
70843;BME280;58469;52.312;16.970;2024-03-02T14:36:07;100207.22;;;14.67;71.31
70843;BME280;58469;52.312;16.970;2024-03-02T14:39:07;100202.47;;;14.64;71.99
70843;BME280;58469;52.312;16.970;2024-03-02T14:42:10;100202.13;;;14.56;72.26
70843;BME280;58469;52.312;16.970;2024-03-02T14:45:10;100201.28;;;14.50;71.56
70843;BME280;58469;52.312;16.970;2024-03-02T14:48:11;100199.66;;;14.44;71.75
70843;BME280;58469;52.312;16.970;2024-03-02T14:51:11;100199.28;;;14.36;71.72
70843;BME280;58469;52.312;16.970;2024-03-02T14:54:11;100200.25;;;14.30;72.19
70843;BME280;58469;52.312;16.970;2024-03-02T14:57:12;100194.91;;;14.25;72.58
70843;BME280;58469;52.312;16.970;2024-03-02T15:00:12;100197.75;;;14.18;72.52
70843;BME280;58469;52.312;16.970;2024-03-02T15:03:13;100195.06;;;14.13;73.04
70843;BME280;58469;52.312;16.970;2024-03-02T15:06:13;100188.94;;;14.07;72.71
70843;BME280;58469;52.312;16.970;2024-03-02T15:09:14;100188.13;;;14.02;72.68
70843;BME280;58469;52.312;16.970;2024-03-02T15:12:14;100198.84;;;14.00;73.23
70843;BME280;58469;52.312;16.970;2024-03-02T15:15:15;100192.19;;;13.93;73.61
70843;BME280;58469;52.312;16.970;2024-03-02T15:18:15;100193.97;;;13.87;74.09
70843;BME280;58469;52.312;16.970;2024-03-02T15:21:15;100188.59;;;13.77;74.28
70843;BME280;58469;52.312;16.970;2024-03-02T15:24:16;100197.03;;;13.79;75.39
70843;BME280;58469;52.312;16.970;2024-03-02T15:27:16;100191.72;;;13.74;75.84
70843;BME280;58469;52.312;16.970;2024-03-02T15:30:16;100194.03;;;13.71;76.15
70843;BME280;58469;52.312;16.970;2024-03-02T15:33:17;100189.97;;;13.63;76.87
70843;BME280;58469;52.312;16.970;2024-03-02T15:36:18;100182.78;;;13.54;77.05
70843;BME280;58469;52.312;16.970;2024-03-02T15:39:18;100184.03;;;13.51;78.25